createdAt,value
2017-12-03T00:02:35.238Z," 1.34"
2017-12-03T00:07:31.013Z," 1.49"
2017-12-03T00:12:26.655Z," 1.42"
2017-12-03T00:17:22.358Z," 1.44"
2017-12-03T00:22:18.083Z," 1.49"
2017-12-03T00:27:13.782Z," 1.48"
2017-12-03T00:32:10.807Z," 1.55"
2017-12-03T00:37:06.465Z," 1.45"
2017-12-03T00:42:02.115Z," 1.66"
2017-12-03T00:46:57.888Z," 1.67"
2017-12-03T00:51:53.649Z," 1.49"
2017-12-03T00:56:49.155Z," 1.49"
2017-12-03T01:01:45.597Z," 1.32"
2017-12-03T01:06:41.168Z," 1.58"
2017-12-03T01:11:36.950Z," 1.66"
2017-12-03T01:16:33.328Z," 1.67"
2017-12-03T01:21:28.885Z," 1.44"
2017-12-03T01:26:24.491Z," 1.55"
2017-12-03T01:31:19.725Z," 1.55"
2017-12-03T01:36:16.434Z," 1.58"
2017-12-03T01:41:11.860Z," 1.70"
2017-12-03T01:46:09.247Z," 1.45"
2017-12-03T01:51:04.637Z," 1.63"
2017-12-03T01:56:01.285Z," 1.55"
2017-12-03T02:00:56.698Z," 1.58"
2017-12-03T02:05:53.009Z," 1.56"
2017-12-03T02:10:49.781Z," 1.55"
2017-12-03T02:15:45.643Z," 1.58"
2017-12-03T02:20:42.777Z," 1.73"
2017-12-03T02:25:38.342Z," 1.80"
2017-12-03T02:30:34.961Z," 1.84"
2017-12-03T02:35:30.326Z," 1.85"
2017-12-03T02:40:27.026Z," 1.66"
2017-12-03T02:45:23.216Z," 1.74"
2017-12-03T02:50:18.452Z," 1.73"
2017-12-03T02:55:13.972Z," 1.77"
2017-12-03T03:00:11.298Z," 1.81"
2017-12-03T03:05:06.513Z," 1.77"
2017-12-03T03:10:02.046Z," 1.76"
2017-12-03T03:14:58.530Z," 1.73"
2017-12-03T03:19:55.658Z," 1.71"
2017-12-03T03:24:51.902Z," 1.78"
2017-12-03T03:29:47.724Z," 1.77"
2017-12-03T03:34:42.947Z," 1.66"
2017-12-03T03:39:38.616Z," 1.67"
2017-12-03T03:44:34.404Z," 1.74"
2017-12-03T03:49:29.912Z," 1.78"
2017-12-03T03:54:25.598Z," 1.68"
2017-12-03T03:59:22.176Z," 1.70"
2017-12-03T04:04:17.694Z," 1.77"
2017-12-03T04:09:13.228Z," 1.73"
2017-12-03T04:14:09.859Z," 1.73"
2017-12-03T04:19:06.240Z," 1.67"
2017-12-03T04:24:01.635Z," 1.73"
2017-12-03T04:28:58.957Z," 1.81"
2017-12-03T04:33:54.291Z," 1.81"
2017-12-03T04:38:51.052Z," 1.76"
2017-12-03T04:43:48.164Z," 1.67"
2017-12-03T04:48:43.474Z," 1.67"
2017-12-03T04:53:38.847Z," 1.62"
2017-12-03T04:58:34.387Z," 1.76"
2017-12-03T05:03:30.063Z," 1.62"
2017-12-03T05:08:25.758Z," 1.76"
2017-12-03T05:13:21.336Z," 1.74"
2017-12-03T05:18:17.705Z," 1.74"
2017-12-03T05:23:14.410Z," 1.84"
2017-12-03T05:28:10.464Z," 1.73"
2017-12-03T05:33:06.120Z," 1.76"
2017-12-03T05:38:02.626Z," 1.84"
2017-12-03T05:42:58.092Z," 1.81"
2017-12-03T05:47:53.896Z," 1.76"
2017-12-03T05:52:49.669Z," 1.73"
2017-12-03T05:57:47.312Z," 1.67"
2017-12-03T06:02:43.160Z," 1.78"
2017-12-03T06:07:39.582Z," 1.77"
2017-12-03T06:12:35.204Z," 1.84"
2017-12-03T06:17:30.792Z," 1.76"
2017-12-03T06:22:26.774Z," 1.74"
2017-12-03T06:27:23.402Z," 1.76"
2017-12-03T06:32:18.732Z," 1.76"
2017-12-03T06:37:15.268Z," 1.59"
2017-12-03T06:42:11.398Z," 1.73"
2017-12-03T06:47:07.209Z," 1.78"
2017-12-03T06:52:02.861Z," 1.78"
2017-12-03T06:56:58.454Z," 1.84"
2017-12-03T07:01:55.879Z," 1.84"
2017-12-03T07:06:51.298Z," 1.81"
2017-12-03T07:11:46.945Z," 1.91"
2017-12-03T07:16:42.607Z," 1.88"
2017-12-03T07:21:39.185Z," 1.81"
2017-12-03T07:26:34.493Z," 1.84"
2017-12-03T07:31:30.189Z," 1.84"
2017-12-03T07:36:26.059Z," 1.80"
2017-12-03T07:41:22.798Z," 1.89"
2017-12-03T07:46:18.020Z," 1.89"
2017-12-03T07:51:13.335Z," 1.80"
2017-12-03T07:56:09.373Z," 1.78"
2017-12-03T08:01:05.699Z," 1.89"
2017-12-03T08:06:01.429Z," 1.91"
2017-12-03T08:10:57.021Z," 1.92"
2017-12-03T08:15:54.142Z," 1.94"
2017-12-03T08:20:49.602Z," 1.95"
2017-12-03T08:25:45.153Z," 2.02"
2017-12-03T08:30:42.110Z," 2.02"
2017-12-03T08:35:37.658Z," 1.99"
2017-12-03T08:40:34.418Z," 2.02"
2017-12-03T08:45:29.638Z," 1.91"
2017-12-03T08:50:26.431Z," 2.04"
2017-12-03T08:55:21.749Z," 2.07"
2017-12-03T09:00:17.472Z," 2.13"
2017-12-03T09:05:12.842Z," 2.14"
2017-12-03T09:10:09.628Z," 2.06"
2017-12-03T09:15:04.948Z," 1.91"
2017-12-03T09:20:02.340Z," 2.10"
2017-12-03T09:24:58.723Z," 2.07"
2017-12-03T09:29:54.036Z," 2.02"
2017-12-03T09:34:50.718Z," 2.00"
2017-12-03T09:39:45.975Z," 2.02"
2017-12-03T09:44:43.029Z," 2.00"
2017-12-03T09:49:38.555Z," 2.04"
2017-12-03T09:54:35.654Z," 2.07"
2017-12-03T09:59:30.655Z," 2.07"
2017-12-03T10:04:26.243Z," 2.07"
2017-12-03T10:09:22.023Z," 2.07"
2017-12-03T10:14:17.698Z," 2.02"
2017-12-03T10:19:13.375Z," 2.11"
2017-12-03T10:24:10.072Z," 2.11"
2017-12-03T10:29:05.462Z," 2.14"
2017-12-03T10:34:01.493Z," 2.14"
2017-12-03T10:38:57.180Z," 2.17"
2017-12-03T10:43:53.165Z," 2.22"
2017-12-03T10:48:48.790Z," 2.22"
2017-12-03T10:53:45.231Z," 2.28"
2017-12-03T10:58:40.713Z," 2.24"
2017-12-03T11:03:36.780Z," 2.31"
2017-12-03T11:08:32.357Z," 2.32"
2017-12-03T11:13:28.054Z," 2.26"
2017-12-03T11:18:24.723Z," 2.24"
2017-12-03T11:23:20.269Z," 2.25"
2017-12-03T11:28:16.045Z," 2.22"
2017-12-03T11:33:11.717Z," 2.25"
2017-12-03T11:38:07.393Z," 2.14"
2017-12-03T11:43:03.030Z," 2.10"
2017-12-03T11:47:58.429Z," 2.20"
2017-12-03T11:52:54.255Z," 2.14"
2017-12-03T11:57:49.883Z," 2.18"
2017-12-03T12:02:45.678Z," 2.25"
2017-12-03T12:07:42.305Z," 2.20"
2017-12-03T12:12:38.865Z," 2.28"
2017-12-03T12:17:34.160Z," 2.24"
2017-12-03T12:22:30.817Z," 2.31"
2017-12-03T12:27:26.120Z," 2.24"
2017-12-03T12:32:23.574Z," 2.22"
2017-12-03T12:37:19.365Z," 2.29"
2017-12-03T12:42:15.921Z," 2.39"
2017-12-03T12:47:11.221Z," 2.32"
2017-12-03T12:52:06.798Z," 2.29"
2017-12-03T12:57:03.588Z," 2.31"
2017-12-03T13:02:00.065Z," 2.32"
2017-12-03T13:06:57.196Z," 2.33"
2017-12-03T13:11:52.433Z," 2.32"
2017-12-03T13:16:48.262Z," 2.39"
2017-12-03T13:21:43.885Z," 2.50"
2017-12-03T13:26:39.500Z," 2.47"
2017-12-03T13:31:36.160Z," 2.50"
2017-12-03T13:36:31.886Z," 2.50"
2017-12-03T13:41:27.473Z," 2.42"
2017-12-03T13:46:23.343Z," 2.53"
2017-12-03T13:51:19.011Z," 2.57"
2017-12-03T13:56:14.906Z," 2.57"
2017-12-03T14:01:10.410Z," 2.53"
2017-12-03T14:06:06.086Z," 2.53"
2017-12-03T14:11:02.887Z," 2.56"
2017-12-03T14:15:59.822Z," 2.57"
2017-12-03T14:20:55.038Z," 2.56"
2017-12-03T14:25:50.669Z," 2.56"
2017-12-03T14:30:47.392Z," 2.53"
2017-12-03T14:35:42.523Z," 2.56"
2017-12-03T14:40:38.322Z," 2.53"
2017-12-03T14:45:33.892Z," 2.62"
2017-12-03T14:50:31.038Z," 2.64"
2017-12-03T14:55:26.416Z," 2.61"
2017-12-03T15:00:23.210Z," 2.64"
2017-12-03T15:05:19.710Z," 2.67"
2017-12-03T15:10:15.072Z," 2.65"
2017-12-03T15:15:11.690Z," 2.62"
2017-12-03T15:20:07.171Z," 2.65"
2017-12-03T15:25:02.649Z," 2.67"
2017-12-03T15:29:58.474Z," 2.68"
2017-12-03T15:34:55.112Z," 2.80"
2017-12-03T15:39:50.422Z," 2.85"
2017-12-03T15:44:45.478Z," 2.83"
2017-12-03T15:49:41.197Z," 2.80"
2017-12-03T15:54:37.271Z," 2.83"
2017-12-03T15:59:32.910Z," 2.83"
2017-12-03T16:04:28.419Z," 2.85"
2017-12-03T16:09:24.210Z," 2.85"
2017-12-03T16:14:19.955Z," 2.90"
2017-12-03T16:19:15.683Z," 2.90"
2017-12-03T16:24:12.283Z," 2.90"
2017-12-03T16:29:07.708Z," 2.98"
2017-12-03T16:34:03.364Z," 2.89"
2017-12-03T16:38:58.972Z," 3.00"
2017-12-03T16:43:54.784Z," 2.92"
2017-12-03T16:48:50.570Z," 3.00"
2017-12-03T16:53:46.366Z," 3.05"
2017-12-03T16:58:42.046Z," 3.05"
2017-12-03T17:03:37.920Z," 3.13"
2017-12-03T17:08:33.986Z," 3.16"
2017-12-03T17:13:29.445Z," 3.22"
2017-12-03T17:18:25.318Z," 3.08"
2017-12-03T17:23:21.008Z," 3.25"
2017-12-03T17:28:16.866Z," 3.22"
2017-12-03T17:33:13.530Z," 3.22"
2017-12-03T17:38:09.990Z," 3.26"
2017-12-03T17:43:05.106Z," 3.32"
2017-12-03T17:48:01.866Z," 3.41"
2017-12-03T17:52:57.734Z," 3.40"
2017-12-03T17:57:54.350Z," 3.40"
2017-12-03T18:02:50.490Z," 3.47"
2017-12-03T18:07:46.037Z," 3.47"
2017-12-03T18:12:41.820Z," 3.51"
2017-12-03T18:17:38.549Z," 3.51"
2017-12-03T18:22:33.938Z," 3.50"
2017-12-03T18:27:30.518Z," 3.45"
2017-12-03T18:32:26.116Z," 3.50"
2017-12-03T18:37:22.016Z," 3.58"
2017-12-03T18:42:18.382Z," 3.65"
2017-12-03T18:47:14.090Z," 3.65"
2017-12-03T18:52:09.762Z," 3.66"
2017-12-03T18:57:05.393Z," 3.69"
2017-12-03T19:02:00.868Z," 3.68"
2017-12-03T19:06:56.585Z," 3.74"
2017-12-03T19:11:52.316Z," 3.69"
2017-12-03T19:16:48.099Z," 3.76"
2017-12-03T19:21:44.924Z," 3.81"
2017-12-03T19:26:40.760Z," 3.81"
2017-12-03T19:31:37.536Z," 3.86"
2017-12-03T19:36:34.038Z," 3.88"
2017-12-03T19:41:30.541Z," 3.96"
2017-12-03T19:46:25.672Z," 3.98"
2017-12-03T19:51:21.739Z," 3.99"
2017-12-03T19:56:17.498Z," 3.96"
2017-12-03T20:01:14.281Z," 4.02"
2017-12-03T20:06:09.737Z," 4.01"
2017-12-03T20:11:06.498Z," 4.12"
2017-12-03T20:16:01.900Z," 4.12"
2017-12-03T20:20:57.537Z," 4.17"
2017-12-03T20:25:53.421Z," 4.10"
2017-12-03T20:30:49.563Z," 4.16"
2017-12-03T20:35:45.027Z," 4.19"
2017-12-03T20:40:40.818Z," 4.19"
2017-12-03T20:45:37.400Z," 4.30"
2017-12-03T20:50:32.796Z," 4.24"
2017-12-03T20:55:28.608Z," 4.31"
2017-12-03T21:00:25.757Z," 4.44"
2017-12-03T21:05:21.223Z," 4.42"
2017-12-03T21:10:17.328Z," 4.32"
2017-12-03T21:15:13.203Z," 4.55"
2017-12-03T21:20:08.922Z," 4.50"
2017-12-03T21:25:04.726Z," 4.40"
2017-12-03T21:30:00.562Z," 4.45"
2017-12-03T21:34:56.598Z," 4.53"
2017-12-03T21:39:52.950Z," 4.52"
2017-12-03T21:44:48.646Z," 4.45"
2017-12-03T21:49:44.699Z," 4.62"
2017-12-03T21:54:41.258Z," 4.66"
2017-12-03T21:59:36.647Z," 4.70"
2017-12-03T22:04:32.973Z," 4.67"
2017-12-03T22:09:29.645Z," 4.68"
2017-12-03T22:14:26.645Z," 4.68"
2017-12-03T22:19:22.093Z," 4.71"
2017-12-03T22:24:18.491Z," 4.75"
2017-12-03T22:29:14.915Z," 4.84"
2017-12-03T22:34:11.661Z," 4.82"
2017-12-03T22:39:07.208Z," 4.78"
2017-12-03T22:44:03.205Z," 4.89"
2017-12-03T22:48:59.667Z," 4.71"
2017-12-03T22:53:55.298Z," 4.80"
2017-12-03T22:58:51.171Z," 4.90"
2017-12-03T23:03:47.106Z," 4.89"
2017-12-03T23:08:42.504Z," 4.94"
2017-12-03T23:13:39.148Z," 4.97"
2017-12-03T23:18:35.096Z," 5.00"
2017-12-03T23:23:30.820Z," 4.99"
2017-12-03T23:28:27.466Z," 4.99"
2017-12-03T23:33:23.056Z," 5.08"
2017-12-03T23:38:19.750Z," 5.11"
2017-12-03T23:43:15.072Z," 5.05"
2017-12-03T23:48:10.992Z," 5.17"
2017-12-03T23:53:06.799Z," 5.20"
2017-12-03T23:58:02.742Z," 5.14"
